Burgos, Spain
Current Conditions -  °F | °C
As of 10:00 AM on Friday 19 Dec 2014 (Local Time) from LEBG Reporting Station
Moderate Fog Moderate Fog  
Wind Chill: 28°   Ceiling: 200
Heat Index: 34°   Visibility: 0.25mi
Dew Point: 34°   Wind: 7mph
Humidity: 100%   Direction: 200°SSW
Pressure: 30.48"   Gusts: NA
Location:  42.34°N, 3.7°W
Report Text: LEBG 190900Z 20006KT 0400 R22/0750N FG VV002 01/01 Q1032
Loading
Personal Weather Stations






























Interactive Weather Map New forecast layout! Learn more

10-Day Weather Forecast

Advertisements
Track Severe Weather on mobile